Zim Pacific — A8OZ4 — position and weather

sailwx.info

Track history (hours):
 
Tides and Currents Weather Stations Pressure Air Temp Water Temp Dewpoint Dewpoint Depression Visibility Wind Speed Wind Dir Waves Ship Positions

Zim Pacific

Last reported at 2015-Jul-30 07:33 UTC. Time now 2015-Jul-30 08:17 UTC.
Position N 30°41' E 122°55'.

Length 254 m; draft 9.5 m.

Type: Ship. MMSI: 636016512.

Date/timePositionNaut miles runAvg speedWind from/ knotsBaromVisibWave heightAir tempDewpointWater temp
2015-Jul-30 07:33N 30°41' E 122°55'2020.0
2015-Jul-30 06:33N 30°60' E 122°46'1817.2
2015-Jul-30 05:30N 31°06' E 122°26'1212.3
2015-Jul-30 04:33N 31°09' E 122°13'1514.6
2015-Jul-30 03:34N 31°15' E 121°58'1414.1
2015-Jul-30 02:33N 31°20' E 121°42'6 6.2
2015-Jul-30 01:32N 31°22' E 121°35'0 0.0
2015-Jul-30 00:31N 31°22' E 121°35'0 0.0
2015-Jul-29 23:29N 31°22' E 121°35'0 0.0
2015-Jul-29 22:25N 31°22' E 121°35'0 0.0
2015-Jul-29 21:33N 31°22' E 121°35'0 0.0
2015-Jul-29 20:33N 31°22' E 121°35'0 0.0
2015-Jul-29 19:30N 31°22' E 121°35'0 0.0
2015-Jul-29 18:29N 31°22' E 121°35'0 0.0
2015-Jul-29 17:26N 31°22' E 121°35'0 0.0
2015-Jul-29 16:22N 31°22' E 121°35'0 0.0
2015-Jul-29 15:19N 31°22' E 121°35'0 0.0
2015-Jul-29 14:30N 31°22' E 121°35'0 0.3
2015-Jul-29 13:32N 31°22' E 121°36'0 0.3
2015-Jul-29 12:33N 31°22' E 121°36'8 7.9
2015-Jul-29 11:34N 31°19' E 121°44'1413.9
2015-Jul-29 10:33N 31°15' E 121°60'1313.2
2015-Jul-29 09:33N 31°09' E 122°14'1211.7
2015-Jul-29 08:34N 31°07' E 122°27'1211.7
2015-Jul-29 07:34N 31°07' E 122°41'6 6.0
2015-Jul-29 06:34N 31°09' E 122°48'0 0.0
2015-Jul-29 05:30N 31°09' E 122°48'0 0.1
2015-Jul-29 03:05N 31°09' E 122°48'0 0.1
2015-Jul-29 01:10N 31°09' E 122°48'0 0.0
2015-Jul-29 00:10N 31°09' E 122°48'0 0.1
2015-Jul-28 23:33N 31°09' E 122°48'0 0.0
2015-Jul-28 22:30N 31°09' E 122°48'0 0.1
2015-Jul-28 21:33N 31°09' E 122°48'0 0.1
2015-Jul-28 20:23N 31°09' E 122°48'0 0.0
2015-Jul-28 19:29N 31°09' E 122°48'0 0.0
2015-Jul-28 18:31N 31°09' E 122°48'0 0.0
2015-Jul-28 17:31N 31°09' E 122°48'0 0.1
2015-Jul-28 16:33N 31°09' E 122°48'0 0.1
2015-Jul-28 15:30N 31°09' E 122°48'0 0.1
2015-Jul-28 14:30N 31°09' E 122°48'0 0.1
2015-Jul-28 13:17N 31°09' E 122°48'0 0.1
2015-Jul-28 12:32N 31°09' E 122°48'0 0.1
2015-Jul-28 11:28N 31°09' E 122°47'0 0.1
2015-Jul-28 10:31N 31°09' E 122°47'0 0.1
2015-Jul-28 09:33N 31°09' E 122°47'0 0.1
2015-Jul-28 06:32N 31°09' E 122°48'0 0.0
2015-Jul-28 05:32N 31°09' E 122°48'0 0.1
2015-Jul-28 02:18N 31°09' E 122°48'0 0.1
2015-Jul-28 01:27N 31°09' E 122°48'0 0.0
2015-Jul-28 00:20N 31°09' E 122°48'0 0.1
2015-Jul-27 23:29N 31°09' E 122°48'0 0.0
2015-Jul-27 22:29N 31°09' E 122°48'0 0.1
2015-Jul-27 21:28N 31°09' E 122°48'0 0.0
2015-Jul-27 20:31N 31°09' E 122°48'0 0.1
2015-Jul-27 19:30N 31°09' E 122°48'0 0.1
2015-Jul-27 18:33N 31°09' E 122°48'0 0.0
2015-Jul-27 17:32N 31°09' E 122°48'0 0.0
2015-Jul-27 16:32N 31°09' E 122°48'0 0.1
2015-Jul-27 15:32N 31°09' E 122°48'0 0.0
2015-Jul-27 14:16N 31°09' E 122°48'0 0.1
2015-Jul-27 13:32N 31°09' E 122°48'0 0.1
2015-Jul-27 12:33N 31°09' E 122°48'0 0.1
2015-Jul-27 11:30N 31°09' E 122°47'0 0.1
2015-Jul-27 10:26N 31°09' E 122°47'0 0.1
2015-Jul-27 09:32N 31°09' E 122°47'0 0.1
2015-Jul-27 07:19N 31°09' E 122°48'0 0.0
2015-Jul-27 04:17N 31°09' E 122°48'9 9.6
2015-Jul-27 03:18N 31°05' E 122°58'912.2
2015-Jul-27 02:33N 30°56' E 123°00'1513.0
2015-Jul-27 01:23N 30°41' E 123°02'1113.4
2015-Jul-27 00:33N 30°30' E 123°04'3912.5
2015-Jul-26 21:25N 29°52' E 122°52'1814.1
2015-Jul-26 20:10N 29°44' E 122°34'812.8
2015-Jul-26 19:33N 29°44' E 122°25'1110.8
2015-Jul-26 18:34N 29°49' E 122°14'1212.0
2015-Jul-26 17:33N 29°55' E 122°02'1110.8
2015-Jul-26 16:33N 29°57' E 121°50'0 0.0
2015-Jul-26 15:29N 29°57' E 121°50'0 0.0
2015-Jul-26 14:29N 29°57' E 121°50'0 0.0
2015-Jul-26 13:29N 29°57' E 121°50'0 0.0
2015-Jul-26 12:28N 29°57' E 121°50'0 0.0
2015-Jul-26 11:28N 29°57' E 121°50'0 0.0
2015-Jul-26 10:33N 29°57' E 121°50'1 1.1
2015-Jul-26 09:33N 29°58' E 121°50'1111.1
2015-Jul-26 08:34N 29°55' E 122°03'1212.1
2015-Jul-26 07:33N 29°49' E 122°14'8 8.2
2015-Jul-26 06:32N 29°45' E 122°23'2 0.5
2015-Jul-26 01:32N 29°46' E 122°25'3 2.8
2015-Jul-26 00:29N 29°44' E 122°28'1211.6
2015-Jul-25 23:27N 29°32' E 122°32'40615.0
2015-Jul-24 20:17N 23°48' E 118°31'  
2015-Jul-20 08:20N 01°15' E 104°04'1113.8
2015-Jul-20 07:33N 01°12' E 103°53'  
Track history (hours):
 
Tides and Currents Weather Stations Pressure Air Temp Water Temp Dewpoint Dewpoint Depression Visibility Wind Speed Wind Dir Waves Ship Positions

Zim Pacific

Last reported at 2015-Jul-30 07:33 UTC. Time now 2015-Jul-30 08:17 UTC.
Position N 30°41' E 122°55'.

Length 254 m; draft 9.5 m.

Type: Ship. MMSI: 636016512.

Date/timePositionNaut miles runAvg speedWind from/ knotsBaromVisibWave heightAir tempDewpointWater temp
2015-Jul-30 07:33N 30°41' E 122°55'2020.0
2015-Jul-30 06:33N 30°60' E 122°46'1817.2
2015-Jul-30 05:30N 31°06' E 122°26'1212.3
2015-Jul-30 04:33N 31°09' E 122°13'1514.6
2015-Jul-30 03:34N 31°15' E 121°58'1414.1
2015-Jul-30 02:33N 31°20' E 121°42'6 6.2
2015-Jul-30 01:32N 31°22' E 121°35'0 0.0
2015-Jul-30 00:31N 31°22' E 121°35'0 0.0
2015-Jul-29 23:29N 31°22' E 121°35'0 0.0
2015-Jul-29 22:25N 31°22' E 121°35'0 0.0
2015-Jul-29 21:33N 31°22' E 121°35'0 0.0
2015-Jul-29 20:33N 31°22' E 121°35'0 0.0
2015-Jul-29 19:30N 31°22' E 121°35'0 0.0
2015-Jul-29 18:29N 31°22' E 121°35'0 0.0
2015-Jul-29 17:26N 31°22' E 121°35'0 0.0
2015-Jul-29 16:22N 31°22' E 121°35'0 0.0
2015-Jul-29 15:19N 31°22' E 121°35'0 0.0
2015-Jul-29 14:30N 31°22' E 121°35'0 0.3
2015-Jul-29 13:32N 31°22' E 121°36'0 0.3
2015-Jul-29 12:33N 31°22' E 121°36'8 7.9
2015-Jul-29 11:34N 31°19' E 121°44'1413.9
2015-Jul-29 10:33N 31°15' E 121°60'1313.2
2015-Jul-29 09:33N 31°09' E 122°14'1211.7
2015-Jul-29 08:34N 31°07' E 122°27'1211.7
2015-Jul-29 07:34N 31°07' E 122°41'6 6.0
2015-Jul-29 06:34N 31°09' E 122°48'0 0.0
2015-Jul-29 05:30N 31°09' E 122°48'0 0.1
2015-Jul-29 03:05N 31°09' E 122°48'0 0.1
2015-Jul-29 01:10N 31°09' E 122°48'0 0.0
2015-Jul-29 00:10N 31°09' E 122°48'0 0.1
2015-Jul-28 23:33N 31°09' E 122°48'0 0.0
2015-Jul-28 22:30N 31°09' E 122°48'0 0.1
2015-Jul-28 21:33N 31°09' E 122°48'0 0.1
2015-Jul-28 20:23N 31°09' E 122°48'0 0.0
2015-Jul-28 19:29N 31°09' E 122°48'0 0.0
2015-Jul-28 18:31N 31°09' E 122°48'0 0.0
2015-Jul-28 17:31N 31°09' E 122°48'0 0.1
2015-Jul-28 16:33N 31°09' E 122°48'0 0.1
2015-Jul-28 15:30N 31°09' E 122°48'0 0.1
2015-Jul-28 14:30N 31°09' E 122°48'0 0.1
2015-Jul-28 13:17N 31°09' E 122°48'0 0.1
2015-Jul-28 12:32N 31°09' E 122°48'0 0.1
2015-Jul-28 11:28N 31°09' E 122°47'0 0.1
2015-Jul-28 10:31N 31°09' E 122°47'0 0.1
2015-Jul-28 09:33N 31°09' E 122°47'0 0.1
2015-Jul-28 06:32N 31°09' E 122°48'0 0.0
2015-Jul-28 05:32N 31°09' E 122°48'0 0.1
2015-Jul-28 02:18N 31°09' E 122°48'0 0.1
2015-Jul-28 01:27N 31°09' E 122°48'0 0.0
2015-Jul-28 00:20N 31°09' E 122°48'0 0.1
2015-Jul-27 23:29N 31°09' E 122°48'0 0.0
2015-Jul-27 22:29N 31°09' E 122°48'0 0.1
2015-Jul-27 21:28N 31°09' E 122°48'0 0.0
2015-Jul-27 20:31N 31°09' E 122°48'0 0.1
2015-Jul-27 19:30N 31°09' E 122°48'0 0.1
2015-Jul-27 18:33N 31°09' E 122°48'0 0.0
2015-Jul-27 17:32N 31°09' E 122°48'0 0.0
2015-Jul-27 16:32N 31°09' E 122°48'0 0.1
2015-Jul-27 15:32N 31°09' E 122°48'0 0.0
2015-Jul-27 14:16N 31°09' E 122°48'0 0.1
2015-Jul-27 13:32N 31°09' E 122°48'0 0.1
2015-Jul-27 12:33N 31°09' E 122°48'0 0.1
2015-Jul-27 11:30N 31°09' E 122°47'0 0.1
2015-Jul-27 10:26N 31°09' E 122°47'0 0.1
2015-Jul-27 09:32N 31°09' E 122°47'0 0.1
2015-Jul-27 07:19N 31°09' E 122°48'0 0.0
2015-Jul-27 04:17N 31°09' E 122°48'9 9.6
2015-Jul-27 03:18N 31°05' E 122°58'912.2
2015-Jul-27 02:33N 30°56' E 123°00'1513.0
2015-Jul-27 01:23N 30°41' E 123°02'1113.4
2015-Jul-27 00:33N 30°30' E 123°04'3912.5
2015-Jul-26 21:25N 29°52' E 122°52'1814.1
2015-Jul-26 20:10N 29°44' E 122°34'812.8
2015-Jul-26 19:33N 29°44' E 122°25'1110.8
2015-Jul-26 18:34N 29°49' E 122°14'1212.0
2015-Jul-26 17:33N 29°55' E 122°02'1110.8
2015-Jul-26 16:33N 29°57' E 121°50'0 0.0
2015-Jul-26 15:29N 29°57' E 121°50'0 0.0
2015-Jul-26 14:29N 29°57' E 121°50'0 0.0
2015-Jul-26 13:29N 29°57' E 121°50'0 0.0
2015-Jul-26 12:28N 29°57' E 121°50'0 0.0
2015-Jul-26 11:28N 29°57' E 121°50'0 0.0
2015-Jul-26 10:33N 29°57' E 121°50'1 1.1
2015-Jul-26 09:33N 29°58' E 121°50'1111.1
2015-Jul-26 08:34N 29°55' E 122°03'1212.1
2015-Jul-26 07:33N 29°49' E 122°14'8 8.2
2015-Jul-26 06:32N 29°45' E 122°23'2 0.5
2015-Jul-26 01:32N 29°46' E 122°25'3 2.8
2015-Jul-26 00:29N 29°44' E 122°28'1211.6
2015-Jul-25 23:27N 29°32' E 122°32'40615.0
2015-Jul-24 20:17N 23°48' E 118°31'  
2015-Jul-20 08:20N 01°15' E 104°04'1113.8
2015-Jul-20 07:33N 01°12' E 103°53'  

Dump ship's entire track history